Time;durP1;ratioP1;P1;durP2;ratioP2;P2;SDS_P1;SDS_P2;PMS_P1;PMS_P2;Temp;Humidity;BMP_temperature;BMP_pressure;BME280_temperature;BME280_humidity;BME280_pressure;Samples;Min_cycle;Max_cycle;Signal;HPM_P1;HPM_P2
2021/12/01 00:01:40;;;;;;;24.60;11.48;;;8.70;99.90;;;;;;5072180;28;20041;-81
2021/12/01 00:04:06;;;;;;;20.42;10.50;;;8.70;99.90;;;;;;5005008;28;20047;-80
2021/12/01 00:06:33;;;;;;;21.52;11.90;;;9.10;99.90;;;;;;5076306;28;20492;-81
2021/12/01 00:08:59;;;;;;;22.52;11.57;;;8.80;99.90;;;;;;5065527;28;20091;-81
2021/12/01 00:11:25;;;;;;;21.58;12.55;;;8.90;99.90;;;;;;5064148;28;20098;-81
2021/12/01 00:13:51;;;;;;;25.10;14.13;;;8.90;99.90;;;;;;5045251;28;20099;-81
2021/12/01 00:16:16;;;;;;;23.52;14.73;;;8.90;99.90;;;;;;5054351;28;20484;-81
2021/12/01 00:18:42;;;;;;;23.10;13.65;;;9.00;99.90;;;;;;5031825;28;20121;-81
2021/12/01 00:21:08;;;;;;;28.35;14.85;;;9.20;99.90;;;;;;5030474;28;20036;-81
2021/12/01 00:23:34;;;;;;;27.10;17.63;;;9.00;99.90;;;;;;5034551;28;20040;-81
2021/12/01 00:26:00;;;;;;;28.52;16.23;;;9.10;99.90;;;;;;5031785;28;20116;-81
2021/12/01 00:28:26;;;;;;;33.95;17.02;;;9.10;99.90;;;;;;5033794;28;20100;-81
2021/12/01 00:30:52;;;;;;;30.58;17.20;;;9.10;99.90;;;;;;5041460;28;21084;-81
2021/12/01 00:33:22;;;;;;;27.35;16.38;;;9.10;99.90;;;;;;5081934;28;20095;-81
2021/12/01 00:35:51;;;;;;;28.42;17.77;;;9.10;99.90;;;;;;5034514;28;20033;-80
2021/12/01 00:38:17;;;;;;;35.05;19.35;;;9.30;99.90;;;;;;5058825;28;20098;-80
2021/12/01 00:40:43;;;;;;;27.00;15.52;;;9.10;99.90;;;;;;5059870;28;20037;-81
2021/12/01 00:43:15;;;;;;;27.85;17.67;;;9.20;99.90;;;;;;5034542;28;20041;-80
2021/12/01 00:45:49;;;;;;;25.15;16.52;;;9.30;99.90;;;;;;5050381;28;20495;-81
2021/12/01 00:48:16;;;;;;;25.88;14.20;;;9.20;99.90;;;;;;5031123;28;20084;-81
2021/12/01 00:50:41;;;;;;;27.45;17.85;;;9.30;99.90;;;;;;5074493;28;20097;-81
2021/12/01 00:53:08;;;;;;;31.23;18.80;;;9.30;99.90;;;;;;5057127;28;20128;-81
2021/12/01 00:55:34;;;;;;;28.45;17.83;;;9.30;99.90;;;;;;5031869;28;20036;-81
2021/12/01 00:58:00;;;;;;;28.60;17.30;;;9.30;99.90;;;;;;5045169;28;20103;-81
2021/12/01 01:00:28;;;;;;;28.38;17.50;;;9.30;99.90;;;;;;5076875;28;20071;-81
2021/12/01 01:02:56;;;;;;;26.42;15.00;;;9.40;99.90;;;;;;5050719;28;20041;-81
2021/12/01 01:05:22;;;;;;;26.23;16.63;;;9.30;99.90;;;;;;5044948;28;20041;-81
2021/12/01 01:07:48;;;;;;;19.58;14.73;;;9.30;99.90;;;;;;5044982;28;20037;-81
2021/12/01 01:10:30;;;;;;;24.55;16.40;;;9.30;99.90;;;;;;5057448;28;20038;-81
2021/12/01 01:18:39;;;;;;;20.88;14.40;;;9.40;99.90;;;;;;5051173;28;20049;-80
2021/12/01 01:21:07;;;;;;;26.52;15.70;;;9.40;99.90;;;;;;5065614;28;20041;-80
2021/12/01 01:23:35;;;;;;;17.77;12.48;;;9.40;99.90;;;;;;5042567;28;20060;-81
2021/12/01 01:26:03;;;;;;;20.42;15.02;;;9.50;99.90;;;;;;5082111;28;20116;-81
2021/12/01 01:28:28;;;;;;;25.65;14.70;;;9.50;99.90;;;;;;5032712;28;20041;-81
2021/12/01 01:30:55;;;;;;;15.45;9.05;;;9.50;99.90;;;;;;5049619;28;20099;-81
2021/12/01 01:33:21;;;;;;;15.73;10.75;;;9.50;99.90;;;;;;5043810;28;20033;-80
2021/12/01 01:35:48;;;;;;;24.20;13.82;;;9.50;99.90;;;;;;5076514;28;20044;-80
2021/12/01 01:38:14;;;;;;;24.15;14.23;;;9.50;99.90;;;;;;5061520;28;20096;-81
2021/12/01 01:40:40;;;;;;;21.85;12.77;;;9.50;99.90;;;;;;5043894;28;20400;-81
2021/12/01 01:43:07;;;;;;;18.73;11.52;;;9.50;99.90;;;;;;5078101;28;20037;-80
2021/12/01 01:45:34;;;;;;;24.95;11.50;;;9.80;99.90;;;;;;5049198;28;20107;-81
2021/12/01 01:48:03;;;;;;;19.85;11.10;;;9.60;99.90;;;;;;5043224;28;20030;-81
2021/12/01 01:50:37;;;;;;;20.17;9.93;;;9.40;99.90;;;;;;5036618;28;20041;-80
2021/12/01 01:53:16;;;;;;;16.42;9.63;;;9.50;99.90;;;;;;5048103;28;20037;-80
2021/12/01 01:55:44;;;;;;;15.18;8.13;;;9.40;99.90;;;;;;5053488;28;20037;-80
2021/12/01 01:58:12;;;;;;;11.88;7.63;;;9.40;99.90;;;;;;5056068;28;20041;-80
2021/12/01 02:00:45;;;;;;;14.52;7.82;;;9.20;99.90;;;;;;5029742;28;20037;-80
2021/12/01 02:03:15;;;;;;;16.92;7.82;;;9.50;99.90;;;;;;5033044;28;20039;-80
2021/12/01 02:05:41;;;;;;;15.13;9.38;;;9.40;99.90;;;;;;5065340;28;20095;-81
2021/12/01 02:08:16;;;;;;;17.23;8.98;;;9.40;99.90;;;;;;5009514;28;20081;-79
2021/12/01 02:10:43;;;;;;;15.25;8.38;;;9.40;99.90;;;;;;5064981;28;20052;-79
2021/12/01 02:13:09;;;;;;;15.82;8.98;;;9.50;99.90;;;;;;5031649;28;20065;-80
2021/12/01 02:15:35;;;;;;;9.35;5.97;;;9.40;99.90;;;;;;5046283;28;20041;-79
2021/12/01 02:18:02;;;;;;;13.50;7.80;;;9.40;99.90;;;;;;5031886;28;20060;-79
2021/12/01 02:20:27;;;;;;;15.60;7.53;;;9.40;99.90;;;;;;5066615;28;20078;-79
2021/12/01 02:22:53;;;;;;;10.20;6.95;;;9.40;99.90;;;;;;5026096;28;20565;-80
2021/12/01 02:25:24;;;;;;;7.90;5.43;;;9.40;99.90;;;;;;5048252;28;20424;-80
2021/12/01 02:27:49;;;;;;;9.95;5.32;;;9.30;99.90;;;;;;5027818;28;20037;-80
2021/12/01 02:30:15;;;;;;;8.98;5.00;;;9.50;99.90;;;;;;5049805;28;20044;-81
2021/12/01 02:32:41;;;;;;;6.97;4.20;;;9.40;99.90;;;;;;5072223;28;20124;-80
2021/12/01 02:35:07;;;;;;;8.45;4.20;;;9.50;99.90;;;;;;5006860;28;20032;-80
2021/12/01 02:37:35;;;;;;;8.13;4.88;;;9.50;99.90;;;;;;5050414;28;20053;-80
2021/12/01 02:40:01;;;;;;;9.45;4.55;;;9.50;99.90;;;;;;5019057;28;20071;-79
2021/12/01 02:42:27;;;;;;;6.82;4.53;;;9.50;99.90;;;;;;5052217;28;20040;-80
2021/12/01 02:44:52;;;;;;;6.20;4.10;;;10.00;99.90;;;;;;5029560;28;20340;-80
2021/12/01 02:47:18;;;;;;;5.40;3.53;;;9.60;99.90;;;;;;5063866;28;20072;-80
2021/12/01 02:49:44;;;;;;;6.93;3.67;;;9.60;99.90;;;;;;5045948;28;20041;-80
2021/12/01 02:52:10;;;;;;;6.63;3.90;;;9.70;99.90;;;;;;5048611;28;20106;-80
2021/12/01 02:54:36;;;;;;;5.43;3.03;;;9.90;99.90;;;;;;5037393;28;20427;-79
2021/12/01 02:57:01;;;;;;;6.22;3.83;;;9.60;99.90;;;;;;5032727;28;20490;-79
2021/12/01 02:59:27;;;;;;;6.38;2.80;;;9.60;99.90;;;;;;5027390;28;20036;-80
2021/12/01 03:01:54;;;;;;;5.63;2.85;;;9.60;99.90;;;;;;5033900;28;20044;-80
2021/12/01 03:04:22;;;;;;;4.45;3.00;;;9.70;99.90;;;;;;5050209;28;20040;-80
2021/12/01 03:06:49;;;;;;;4.47;2.75;;;10.00;99.90;;;;;;5045808;28;20033;-80
2021/12/01 03:09:16;;;;;;;5.13;3.08;;;9.70;99.90;;;;;;5077768;28;20531;-80
2021/12/01 03:11:45;;;;;;;4.55;2.75;;;9.70;99.90;;;;;;5075215;28;20117;-80
2021/12/01 03:14:14;;;;;;;4.28;2.42;;;9.70;99.90;;;;;;5047776;28;20043;-80
2021/12/01 03:16:42;;;;;;;3.53;2.22;;;9.80;99.90;;;;;;5043846;28;20075;-79
2021/12/01 03:19:08;;;;;;;5.60;2.45;;;9.70;99.90;;;;;;5052329;28;20036;-81
2021/12/01 03:21:38;;;;;;;5.35;2.75;;;9.70;99.90;;;;;;5046331;28;20668;-80
2021/12/01 03:24:05;;;;;;;3.33;2.33;;;9.70;99.90;;;;;;5033266;28;20091;-80
2021/12/01 03:26:31;;;;;;;4.03;2.35;;;9.70;99.90;;;;;;5016519;28;20071;-81
2021/12/01 03:28:57;;;;;;;3.22;2.10;;;9.70;99.90;;;;;;5029421;28;20033;-80
2021/12/01 03:31:23;;;;;;;3.03;2.00;;;9.80;99.90;;;;;;5042672;28;20504;-80
2021/12/01 03:33:49;;;;;;;4.13;1.88;;;9.70;99.90;;;;;;5039144;28;20090;-80
2021/12/01 03:36:15;;;;;;;10.00;2.50;;;9.70;99.90;;;;;;5059997;28;20283;-80
2021/12/01 03:38:40;;;;;;;2.65;1.63;;;9.70;99.90;;;;;;4998250;28;20444;-81
2021/12/01 03:41:06;;;;;;;5.75;2.20;;;9.70;99.90;;;;;;5051558;28;20033;-80
2021/12/01 03:43:32;;;;;;;4.97;2.10;;;9.80;99.90;;;;;;5040903;28;20044;-80
2021/12/01 03:45:58;;;;;;;3.00;1.70;;;9.70;99.90;;;;;;5040045;28;20086;-80
2021/12/01 03:48:24;;;;;;;4.15;1.70;;;9.70;99.90;;;;;;5067470;28;20084;-80
2021/12/01 03:50:52;;;;;;;5.05;1.80;;;9.70;99.90;;;;;;5031904;28;20033;-81
2021/12/01 03:53:19;;;;;;;4.53;1.70;;;9.70;99.90;;;;;;5018854;28;20049;-80
2021/12/01 03:55:45;;;;;;;5.03;1.98;;;9.60;99.90;;;;;;5053625;28;20037;-80
2021/12/01 03:58:12;;;;;;;4.47;1.85;;;9.60;99.90;;;;;;5066498;28;20041;-80
2021/12/01 04:00:38;;;;;;;6.53;2.35;;;9.60;99.90;;;;;;5038028;28;20098;-80
2021/12/01 04:03:04;;;;;;;12.25;2.60;;;9.60;99.90;;;;;;5062063;28;20033;-80
2021/12/01 04:05:31;;;;;;;4.03;1.42;;;10.40;99.90;;;;;;5016284;28;20047;-80
2021/12/01 04:07:57;;;;;;;5.28;1.65;;;9.60;99.90;;;;;;5047862;28;20130;-80
2021/12/01 04:10:24;;;;;;;9.75;3.30;;;9.60;99.90;;;;;;5029334;28;20045;-80
2021/12/01 04:12:49;;;;;;;5.28;2.22;;;9.60;99.90;;;;;;5047160;28;20032;-80
2021/12/01 04:15:15;;;;;;;6.03;2.30;;;9.60;99.90;;;;;;5014872;28;20403;-80
2021/12/01 04:17:42;;;;;;;6.50;2.35;;;9.60;99.90;;;;;;5067554;28;20033;-80
2021/12/01 04:20:15;;;;;;;4.55;2.38;;;9.60;99.90;;;;;;5049203;28;20110;-80
2021/12/01 04:22:42;;;;;;;4.40;1.98;;;9.60;99.90;;;;;;5029343;28;20159;-80
2021/12/01 04:25:08;;;;;;;8.23;2.80;;;9.50;99.90;;;;;;5061209;28;20226;-80
2021/12/01 04:27:35;;;;;;;7.28;2.70;;;10.40;99.90;;;;;;5026641;28;20048;-81
2021/12/01 04:30:01;;;;;;;5.10;2.80;;;9.60;99.90;;;;;;5028265;28;20041;-80
2021/12/01 04:32:28;;;;;;;7.47;2.33;;;9.90;99.90;;;;;;5063539;28;20131;-81
2021/12/01 04:34:56;;;;;;;4.32;2.38;;;9.60;99.90;;;;;;5044276;28;20036;-80
2021/12/01 04:37:21;;;;;;;4.72;1.90;;;9.50;99.90;;;;;;5001464;28;20053;-81
2021/12/01 04:39:47;;;;;;;3.22;1.58;;;9.50;99.90;;;;;;5045920;28;20052;-82
2021/12/01 04:42:13;;;;;;;4.15;1.92;;;9.60;99.90;;;;;;5076911;28;20041;-81
2021/12/01 04:44:39;;;;;;;2.90;1.60;;;9.60;99.90;;;;;;5033030;28;20036;-81
2021/12/01 04:47:10;;;;;;;2.17;1.30;;;9.50;99.90;;;;;;5000034;28;20056;-80
2021/12/01 04:49:39;;;;;;;3.67;2.22;;;9.50;99.90;;;;;;5049669;28;20052;-81
2021/12/01 04:52:06;;;;;;;4.07;1.92;;;9.80;99.90;;;;;;5034189;28;20033;-80
2021/12/01 04:54:33;;;;;;;2.17;1.23;;;9.50;99.90;;;;;;5031356;28;20041;-81
2021/12/01 04:57:01;;;;;;;2.75;1.85;;;10.10;99.90;;;;;;5041023;28;20038;-81
2021/12/01 04:59:27;;;;;;;2.30;1.45;;;9.60;99.90;;;;;;5044991;28;20053;-81
2021/12/01 05:01:54;;;;;;;3.53;2.03;;;9.80;99.90;;;;;;5084333;28;20041;-80
2021/12/01 05:04:21;;;;;;;3.85;1.85;;;9.60;99.90;;;;;;5068264;28;20041;-80
2021/12/01 05:06:48;;;;;;;2.47;1.55;;;9.50;99.90;;;;;;5062036;28;20085;-81
2021/12/01 05:09:14;;;;;;;1.88;1.10;;;9.50;99.90;;;;;;5047281;28;20090;-81
2021/12/01 05:11:40;;;;;;;3.42;1.58;;;9.50;99.90;;;;;;5053814;28;20052;-81
2021/12/01 05:14:06;;;;;;;3.85;1.95;;;9.50;99.90;;;;;;5034190;28;20370;-81
2021/12/01 05:16:32;;;;;;;3.03;1.98;;;9.40;99.90;;;;;;5006830;28;20086;-80
2021/12/01 05:18:58;;;;;;;4.68;1.85;;;9.40;99.90;;;;;;5017146;28;20106;-80
2021/12/01 05:21:23;;;;;;;2.83;1.85;;;9.40;99.90;;;;;;5060834;28;20052;-81
2021/12/01 05:23:49;;;;;;;0.98;0.77;;;9.30;99.90;;;;;;5032224;28;20045;-80
2021/12/01 05:26:17;;;;;;;2.35;1.55;;;9.40;99.90;;;;;;5044745;28;20120;-81
2021/12/01 05:28:43;;;;;;;2.40;1.17;;;9.40;99.90;;;;;;5004863;28;20041;-80
2021/12/01 05:31:09;;;;;;;2.47;1.50;;;9.30;99.90;;;;;;5033348;28;20505;-81
2021/12/01 05:33:35;;;;;;;3.10;1.95;;;9.30;99.90;;;;;;5032143;28;20043;-81
2021/12/01 05:36:00;;;;;;;3.33;1.90;;;9.30;99.90;;;;;;5035103;28;20033;-80
2021/12/01 05:38:27;;;;;;;3.10;2.17;;;9.50;99.90;;;;;;5028107;28;20144;-81
2021/12/01 05:40:53;;;;;;;3.15;2.30;;;9.30;99.90;;;;;;5074146;28;20041;-80
2021/12/01 05:43:19;;;;;;;3.00;2.05;;;9.20;99.90;;;;;;5045577;28;20033;-81
2021/12/01 05:45:47;;;;;;;2.63;1.75;;;9.20;99.90;;;;;;5043480;28;20045;-80
2021/12/01 05:48:14;;;;;;;2.65;1.83;;;9.20;99.90;;;;;;5017979;28;20045;-80
2021/12/01 05:50:40;;;;;;;3.03;2.05;;;9.20;99.90;;;;;;5034338;28;20068;-81
2021/12/01 05:53:06;;;;;;;3.70;2.80;;;9.20;99.90;;;;;;5063505;28;20488;-81
2021/12/01 05:55:32;;;;;;;4.07;2.42;;;9.20;99.90;;;;;;5068256;28;20388;-81
2021/12/01 05:57:58;;;;;;;3.42;2.47;;;9.20;99.90;;;;;;5017371;28;20042;-80
2021/12/01 06:00:24;;;;;;;6.95;2.80;;;9.20;99.90;;;;;;5034647;28;20605;-80
2021/12/01 06:02:51;;;;;;;3.75;2.20;;;9.20;99.90;;;;;;5081583;28;20044;-80
2021/12/01 06:05:18;;;;;;;5.05;3.05;;;9.10;99.90;;;;;;5038939;28;20046;-80
2021/12/01 06:07:44;;;;;;;3.80;2.30;;;9.10;99.90;;;;;;5036951;28;20155;-81
2021/12/01 06:10:10;;;;;;;3.47;1.40;;;9.10;99.90;;;;;;5083888;28;20041;-81
2021/12/01 06:12:40;;;;;;;3.97;2.47;;;9.10;99.90;;;;;;5034056;28;20038;-81
2021/12/01 06:15:10;;;;;;;4.95;2.97;;;9.10;99.90;;;;;;5027302;28;20111;-81
2021/12/01 06:17:37;;;;;;;4.85;3.10;;;9.00;99.90;;;;;;5039755;28;20087;-80
2021/12/01 06:20:07;;;;;;;5.55;2.85;;;9.00;99.90;;;;;;5029151;28;20064;-81
2021/12/01 06:22:33;;;;;;;4.97;1.50;;;9.00;99.90;;;;;;5040792;28;20420;-80
2021/12/01 06:24:59;;;;;;;4.18;1.83;;;9.00;99.90;;;;;;5034627;28;20051;-80
2021/12/01 06:27:28;;;;;;;1.60;0.93;;;9.00;99.90;;;;;;5029867;28;20041;-80
2021/12/01 06:29:55;;;;;;;1.98;1.30;;;9.30;99.90;;;;;;5013986;28;20500;-80
2021/12/01 06:32:21;;;;;;;1.42;1.20;;;8.90;99.90;;;;;;5046088;28;20033;-80
2021/12/01 06:34:47;;;;;;;1.30;0.90;;;8.90;99.90;;;;;;5061656;28;20044;-80
2021/12/01 06:37:15;;;;;;;2.80;1.77;;;8.90;99.90;;;;;;4994852;28;20118;-81
2021/12/01 06:39:41;;;;;;;2.17;1.50;;;8.90;99.90;;;;;;5030514;28;20051;-80
2021/12/01 06:42:07;;;;;;;2.55;1.77;;;8.90;99.90;;;;;;5033211;28;20056;-80
2021/12/01 06:44:33;;;;;;;1.85;1.15;;;8.90;99.90;;;;;;5063719;28;20048;-81
2021/12/01 06:47:01;;;;;;;2.53;1.40;;;8.80;99.90;;;;;;5040353;28;20443;-80
2021/12/01 06:49:26;;;;;;;2.58;1.70;;;9.10;99.90;;;;;;5031208;28;20049;-81
2021/12/01 06:51:52;;;;;;;1.83;1.45;;;8.70;99.90;;;;;;5049021;28;20041;-81
2021/12/01 06:54:18;;;;;;;2.72;2.00;;;8.80;99.90;;;;;;5063758;28;20036;-80
2021/12/01 06:56:44;;;;;;;2.58;1.88;;;8.80;99.90;;;;;;5065326;28;20098;-81
2021/12/01 06:59:10;;;;;;;2.25;1.23;;;8.80;99.90;;;;;;5049411;28;21621;-82
2021/12/01 07:01:36;;;;;;;2.45;2.03;;;8.70;99.90;;;;;;5033606;28;20231;-82
2021/12/01 07:04:01;;;;;;;3.35;2.00;;;8.70;99.90;;;;;;5035862;28;20059;-81
2021/12/01 07:06:27;;;;;;;2.75;1.50;;;8.70;99.90;;;;;;5034166;28;20037;-82
2021/12/01 07:08:55;;;;;;;1.77;1.10;;;8.70;99.90;;;;;;5062634;28;20382;-82
2021/12/01 07:11:21;;;;;;;2.72;1.95;;;8.70;99.90;;;;;;5047057;28;20106;-81
2021/12/01 07:13:47;;;;;;;2.92;1.75;;;8.80;99.90;;;;;;5036575;28;20076;-75
2021/12/01 07:16:13;;;;;;;2.67;1.77;;;8.70;99.90;;;;;;5024318;28;20075;-79
2021/12/01 07:18:38;;;;;;;2.97;1.65;;;8.70;99.90;;;;;;5053516;28;20131;-82
2021/12/01 07:21:04;;;;;;;2.20;1.55;;;9.00;99.90;;;;;;5043595;28;20049;-79
2021/12/01 07:23:30;;;;;;;2.35;1.73;;;8.70;99.90;;;;;;5047220;28;20040;-83
2021/12/01 07:25:56;;;;;;;2.65;1.83;;;8.60;99.90;;;;;;5025238;28;20069;-83
2021/12/01 07:28:22;;;;;;;2.15;1.33;;;8.70;99.90;;;;;;5062433;28;20072;-83
2021/12/01 07:30:48;;;;;;;2.78;1.20;;;8.60;99.90;;;;;;5048437;28;20079;-84
2021/12/01 07:33:14;;;;;;;2.30;1.60;;;8.60;99.90;;;;;;5033466;28;20044;-82
2021/12/01 07:35:39;;;;;;;1.90;1.10;;;8.60;99.90;;;;;;5062122;28;20036;-83
2021/12/01 07:38:05;;;;;;;2.20;1.65;;;8.60;99.90;;;;;;5036323;28;20053;-82
2021/12/01 07:40:31;;;;;;;1.75;1.20;;;8.60;99.90;;;;;;5037253;28;20794;-82
2021/12/01 07:42:57;;;;;;;2.85;1.90;;;8.70;99.90;;;;;;5068231;28;20034;-83
2021/12/01 07:45:22;;;;;;;2.83;1.98;;;9.00;99.90;;;;;;5014473;28;20043;-84
2021/12/01 07:47:48;;;;;;;3.38;2.50;;;8.60;99.90;;;;;;5013597;28;20026;-83
2021/12/01 07:50:14;;;;;;;2.20;1.40;;;8.60;99.90;;;;;;5055524;28;20071;-83
2021/12/01 07:52:40;;;;;;;3.67;2.65;;;8.60;99.90;;;;;;5037720;28;20047;-83
2021/12/01 07:55:07;;;;;;;4.07;3.13;;;8.60;99.90;;;;;;5016557;28;20503;-83
2021/12/01 07:57:34;;;;;;;3.45;2.30;;;8.60;99.90;;;;;;5045254;28;20138;-83
2021/12/01 08:00:00;;;;;;;3.15;2.20;;;8.70;99.90;;;;;;5019448;28;20044;-83
2021/12/01 08:02:26;;;;;;;3.53;1.90;;;8.60;99.90;;;;;;5023624;28;20048;-83
2021/12/01 08:04:53;;;;;;;2.80;2.03;;;8.60;99.90;;;;;;5071699;28;20056;-83
2021/12/01 08:07:19;;;;;;;2.33;1.48;;;8.60;99.90;;;;;;5012465;28;20040;-83
2021/12/01 08:09:44;;;;;;;4.45;2.28;;;8.60;99.90;;;;;;5060911;28;20404;-83
2021/12/01 08:12:11;;;;;;;3.60;2.83;;;8.70;99.90;;;;;;5056275;28;20064;-83
2021/12/01 08:14:37;;;;;;;5.60;2.53;;;8.70;99.90;;;;;;5084517;28;20047;-83
2021/12/01 08:17:03;;;;;;;4.05;2.78;;;8.70;99.90;;;;;;5059695;28;20041;-83
2021/12/01 08:19:29;;;;;;;3.65;2.75;;;8.80;99.90;;;;;;5069005;28;20099;-82
2021/12/01 08:21:55;;;;;;;5.70;3.03;;;8.70;99.90;;;;;;5029774;28;20660;-83
2021/12/01 08:24:21;;;;;;;5.60;3.13;;;9.10;99.90;;;;;;5051290;28;20395;-83
2021/12/01 08:26:48;;;;;;;4.88;3.22;;;8.70;99.90;;;;;;5028134;28;20069;-82
2021/12/01 08:29:14;;;;;;;3.85;2.22;;;8.80;99.90;;;;;;5039354;28;20041;-82
2021/12/01 08:31:40;;;;;;;3.72;2.47;;;8.80;99.90;;;;;;5037036;28;20032;-83
2021/12/01 08:34:06;;;;;;;4.05;3.00;;;8.90;99.90;;;;;;5031473;28;20032;-82
2021/12/01 08:36:32;;;;;;;4.65;2.65;;;8.90;99.90;;;;;;5031848;28;20041;-83
2021/12/01 08:38:58;;;;;;;3.40;1.98;;;8.90;99.90;;;;;;5077497;28;20083;-83
2021/12/01 08:41:23;;;;;;;6.03;2.72;;;8.90;99.90;;;;;;5045877;28;20354;-82
2021/12/01 08:43:50;;;;;;;3.65;2.28;;;9.00;99.90;;;;;;5047450;28;20079;-82
2021/12/01 08:46:16;;;;;;;2.33;1.40;;;9.00;99.90;;;;;;5053090;28;20121;-83
2021/12/01 08:48:42;;;;;;;2.78;1.75;;;9.60;99.90;;;;;;5031980;28;20049;-83
2021/12/01 08:51:08;;;;;;;3.60;2.30;;;8.90;99.90;;;;;;5048094;28;20248;-83
2021/12/01 08:53:36;;;;;;;6.82;2.42;;;9.00;99.90;;;;;;5043685;28;20044;-82
2021/12/01 08:56:04;;;;;;;4.55;2.88;;;8.90;99.90;;;;;;5048223;28;20029;-82
2021/12/01 08:58:30;;;;;;;3.95;2.60;;;8.90;99.90;;;;;;5048059;28;20036;-82
2021/12/01 09:00:56;;;;;;;5.78;2.75;;;8.90;99.90;;;;;;5047949;28;20349;-82
2021/12/01 09:03:23;;;;;;;3.83;1.95;;;8.80;99.90;;;;;;5086488;28;20074;-82
2021/12/01 09:05:50;;;;;;;6.85;2.20;;;9.10;99.90;;;;;;5052977;28;20040;-81
2021/12/01 09:08:19;;;;;;;5.97;2.83;;;8.80;99.90;;;;;;5023973;28;20079;-81
2021/12/01 09:10:45;;;;;;;8.07;2.38;;;8.80;99.90;;;;;;5041661;28;20404;-81
2021/12/01 09:13:11;;;;;;;7.65;1.33;;;9.00;99.90;;;;;;5053737;28;20127;-80
2021/12/01 09:15:38;;;;;;;8.98;2.40;;;8.80;99.90;;;;;;5037823;28;20045;-81
2021/12/01 09:18:04;;;;;;;5.00;1.88;;;8.80;99.90;;;;;;5064268;28;20062;-81
2021/12/01 09:20:30;;;;;;;6.40;2.05;;;8.80;99.90;;;;;;5036905;28;20041;-81
2021/12/01 09:22:56;;;;;;;9.68;1.98;;;8.90;99.90;;;;;;5024424;28;20086;-81
2021/12/01 09:25:22;;;;;;;8.30;2.25;;;8.90;99.90;;;;;;5038021;28;20110;-80
2021/12/01 09:27:49;;;;;;;11.68;2.25;;;8.90;99.90;;;;;;5057867;28;20496;-81
2021/12/01 09:30:17;;;;;;;7.03;1.73;;;8.90;99.90;;;;;;5052582;28;21244;-81
2021/12/01 09:32:44;;;;;;;6.18;1.67;;;9.30;99.90;;;;;;5027499;28;20037;-82
2021/12/01 09:35:11;;;;;;;5.38;1.77;;;9.00;99.90;;;;;;5066437;28;20037;-81
2021/12/01 09:37:38;;;;;;;12.02;2.30;;;9.00;99.90;;;;;;5059166;28;20504;-81
2021/12/01 09:40:12;;;;;;;9.73;1.92;;;9.00;99.90;;;;;;5080867;28;20059;-82
2021/12/01 09:42:41;;;;;;;7.43;1.27;;;9.10;99.90;;;;;;5056939;28;22091;-80
2021/12/01 09:45:08;;;;;;;4.60;1.27;;;9.00;99.90;;;;;;5056095;28;20036;-80
2021/12/01 09:47:35;;;;;;;6.97;1.63;;;9.00;99.90;;;;;;5038085;28;20053;-79
2021/12/01 09:50:01;;;;;;;5.55;1.50;;;9.00;99.90;;;;;;5078198;28;20041;-80
2021/12/01 09:52:26;;;;;;;7.93;1.70;;;8.70;99.90;;;;;;5068435;28;20036;-80
2021/12/01 09:54:52;;;;;;;10.85;1.80;;;8.70;99.90;;;;;;5026311;28;20096;-80
2021/12/01 09:57:18;;;;;;;8.85;1.55;;;8.60;99.90;;;;;;5035665;28;20068;-80
2021/12/01 09:59:44;;;;;;;8.27;1.30;;;8.60;99.90;;;;;;5085793;28;20556;-79
2021/12/01 10:02:11;;;;;;;7.68;1.25;;;8.50;99.90;;;;;;5073192;28;20049;-79
2021/12/01 10:04:37;;;;;;;7.95;1.73;;;8.60;99.90;;;;;;5005137;28;20073;-79
2021/12/01 10:07:18;;;;;;;7.53;1.52;;;8.60;99.90;;;;;;5042637;28;20083;-79
2021/12/01 10:09:44;;;;;;;;;;;8.60;99.90;;;;;;5065074;28;20072;-76
2021/12/01 10:12:11;;;;;;;3.85;0.80;;;8.60;99.90;;;;;;5062984;28;19924;-79
2021/12/01 10:14:38;;;;;;;10.73;1.92;;;8.60;99.90;;;;;;5065804;28;20090;-79
2021/12/01 10:17:04;;;;;;;4.50;1.10;;;9.00;99.90;;;;;;5033848;28;20098;-80
2021/12/01 10:19:29;;;;;;;5.28;0.82;;;8.70;99.90;;;;;;5068274;28;20442;-76
2021/12/01 10:21:55;;;;;;;3.45;1.20;;;9.00;99.90;;;;;;5034631;28;20498;-75
2021/12/01 10:24:26;;;;;;;7.43;1.58;;;8.80;99.90;;;;;;5030098;28;20048;-79
2021/12/01 10:27:02;;;;;;;7.78;1.63;;;8.80;99.90;;;;;;5055884;28;20033;-80
2021/12/01 10:29:38;;;;;;;6.45;1.60;;;8.90;99.90;;;;;;5066940;28;20598;-80
2021/12/01 10:32:07;;;;;;;6.55;1.90;;;8.90;99.90;;;;;;5062202;28;20052;-80
2021/12/01 10:34:37;;;;;;;8.00;1.23;;;8.90;99.90;;;;;;5058003;28;20043;-80
2021/12/01 10:37:11;;;;;;;12.80;2.40;;;9.00;99.90;;;;;;5040318;28;20059;-80
2021/12/01 10:39:38;;;;;;;9.95;1.45;;;9.00;99.90;;;;;;5067270;28;20045;-80
2021/12/01 10:42:07;;;;;;;12.68;2.08;;;9.00;99.90;;;;;;5046123;28;20393;-80
2021/12/01 10:44:34;;;;;;;10.10;1.52;;;9.00;99.90;;;;;;5060069;28;20287;-80
2021/12/01 10:47:11;;;;;;;12.48;1.58;;;11.20;99.90;;;;;;5078420;28;20044;-80
2021/12/01 10:49:43;;;;;;;13.73;1.75;;;9.00;99.90;;;;;;5077601;28;20036;-80
2021/12/01 10:52:36;;;;;;;7.57;1.92;;;9.00;99.90;;;;;;5078624;28;20377;-79
2021/12/01 10:55:16;;;;;;;7.10;1.92;;;9.10;99.90;;;;;;5045831;28;20426;-77
2021/12/01 10:57:57;;;;;;;7.85;1.58;;;9.10;99.90;;;;;;5051072;28;20067;-80
2021/12/01 11:00:29;;;;;;;3.72;1.30;;;9.00;99.90;;;;;;5058550;28;20045;-80
2021/12/01 11:03:30;;;;;;;14.35;2.17;;;8.90;99.90;;;;;;5058219;28;20041;-77
2021/12/01 11:06:27;;;;;;;8.68;0.73;;;8.90;99.90;;;;;;5022019;28;20408;-80
2021/12/01 11:08:56;;;;;;;7.80;1.63;;;8.90;99.90;;;;;;5089918;28;20523;-78
2021/12/01 11:11:23;;;;;;;8.70;1.52;;;8.80;99.90;;;;;;5047442;28;20492;-78
2021/12/01 11:13:50;;;;;;;9.80;1.20;;;8.80;99.90;;;;;;5033819;28;20498;-78
2021/12/01 11:16:18;;;;;;;10.85;2.15;;;8.80;99.90;;;;;;5079622;28;20037;-78
2021/12/01 11:18:46;;;;;;;7.88;2.00;;;8.80;99.90;;;;;;5030038;28;20055;-77
2021/12/01 11:21:22;;;;;;;6.18;1.40;;;8.70;99.90;;;;;;5050041;28;20634;-80
2021/12/01 11:23:52;;;;;;;10.98;1.83;;;9.10;99.90;;;;;;5053344;28;20400;-78
2021/12/01 11:26:20;;;;;;;9.77;2.00;;;9.20;99.90;;;;;;5064282;28;20404;-79
2021/12/01 11:29:00;;;;;;;8.35;1.50;;;8.60;99.90;;;;;;5045571;28;20052;-80
2021/12/01 11:31:32;;;;;;;9.13;1.95;;;8.60;99.90;;;;;;5028850;28;20106;-80
2021/12/01 11:34:14;;;;;;;11.32;2.22;;;8.70;99.90;;;;;;5065883;28;20036;-80
2021/12/01 11:36:46;;;;;;;8.88;2.38;;;8.70;99.90;;;;;;5045658;28;20485;-77
2021/12/01 11:39:19;;;;;;;9.63;1.60;;;8.70;99.90;;;;;;5055691;28;20067;-81
2021/12/01 11:41:47;;;;;;;7.80;2.05;;;8.70;99.90;;;;;;5057446;28;20065;-81
2021/12/01 11:44:15;;;;;;;11.27;2.30;;;8.80;99.90;;;;;;5041266;28;20049;-83
2021/12/01 11:46:41;;;;;;;8.98;2.15;;;8.80;99.90;;;;;;5045894;28;20283;-81
2021/12/01 11:49:13;;;;;;;10.43;2.10;;;8.70;99.90;;;;;;5078360;28;20036;-80
2021/12/01 11:52:06;;;;;;;15.02;2.88;;;8.70;99.90;;;;;;5038484;28;20080;-81
2021/12/01 11:54:40;;;;;;;11.77;2.30;;;8.60;99.90;;;;;;5063644;28;20147;-79
2021/12/01 11:57:08;;;;;;;10.77;2.08;;;8.60;99.90;;;;;;5047904;28;20055;-80
2021/12/01 11:59:45;;;;;;;7.75;1.48;;;8.60;99.90;;;;;;5048471;28;20118;-81
2021/12/01 12:02:23;;;;;;;10.98;1.95;;;8.60;99.90;;;;;;5059015;28;20114;-80
2021/12/01 12:04:50;;;;;;;12.13;2.63;;;8.60;99.90;;;;;;5043203;28;20038;-79
2021/12/01 12:07:24;;;;;;;9.45;1.85;;;8.60;99.90;;;;;;5064918;28;20497;-80
2021/12/01 12:10:02;;;;;;;13.38;2.20;;;8.60;99.90;;;;;;5026605;28;20127;-80
2021/12/01 12:12:48;;;;;;;12.18;2.53;;;8.60;99.90;;;;;;5080578;28;20032;-79
2021/12/01 12:15:33;;;;;;;17.52;2.35;;;8.60;99.90;;;;;;5088656;28;20400;-80
2021/12/01 12:18:01;;;;;;;14.75;2.72;;;8.50;99.90;;;;;;5054108;28;20135;-79
2021/12/01 12:20:40;;;;;;;15.18;3.30;;;8.50;99.90;;;;;;5032952;28;20068;-79
2021/12/01 12:23:08;;;;;;;19.98;4.97;;;8.90;99.90;;;;;;5053254;28;20399;-80
2021/12/01 12:25:52;;;;;;;15.70;2.97;;;8.50;99.90;;;;;;5036116;28;20037;-80
2021/12/01 12:28:19;;;;;;;12.88;3.00;;;8.50;99.90;;;;;;5067202;28;20036;-80
2021/12/01 12:30:45;;;;;;;15.27;2.58;;;8.60;99.90;;;;;;5034273;28;20036;-79
2021/12/01 12:33:20;;;;;;;9.52;1.95;;;8.80;99.90;;;;;;5078600;28;20036;-77
2021/12/01 12:35:49;;;;;;;11.32;2.80;;;8.80;99.90;;;;;;5034986;28;20051;-79
2021/12/01 12:38:16;;;;;;;14.00;2.53;;;8.80;99.90;;;;;;5034591;28;20052;-79
2021/12/01 12:40:43;;;;;;;16.50;3.13;;;8.80;99.90;;;;;;5037983;28;20094;-80
2021/12/01 12:43:23;;;;;;;18.27;3.67;;;8.70;99.90;;;;;;5054029;28;20073;-80
2021/12/01 12:46:10;;;;;;;17.17;2.85;;;8.60;99.90;;;;;;5056053;28;20393;-80
2021/12/01 12:48:39;;;;;;;11.57;2.55;;;8.50;99.90;;;;;;5054954;28;20061;-80
2021/12/01 12:51:09;;;;;;;5.32;1.52;;;8.40;99.90;;;;;;5055805;28;20041;-81
2021/12/01 12:53:35;;;;;;;12.07;2.10;;;8.40;99.90;;;;;;5051794;28;20052;-80
2021/12/01 12:56:25;;;;;;;13.40;2.75;;;8.30;99.90;;;;;;5068330;28;20033;-79
2021/12/01 12:58:51;;;;;;;11.60;2.70;;;8.30;99.90;;;;;;5068890;28;20129;-78
2021/12/01 13:01:25;;;;;;;9.77;2.33;;;8.30;99.90;;;;;;5033116;28;20076;-80
2021/12/01 13:03:52;;;;;;;11.25;2.35;;;8.20;99.90;;;;;;5057431;28;20041;-80